sensor_id;sensor_type;location;lat;lon;timestamp;P1;durP1;ratioP1;P2;durP2;ratioP2
13051;SDS011;6592;47.484;9.726;2023-07-31T00:01:37;3.65;;;1.52;;
13051;SDS011;6592;47.484;9.726;2023-07-31T00:04:06;4.57;;;1.60;;
13051;SDS011;6592;47.484;9.726;2023-07-31T00:06:35;5.47;;;1.80;;
13051;SDS011;6592;47.484;9.726;2023-07-31T00:09:04;7.43;;;1.58;;
13051;SDS011;6592;47.484;9.726;2023-07-31T00:11:33;5.03;;;1.52;;
13051;SDS011;6592;47.484;9.726;2023-07-31T00:14:03;3.83;;;1.40;;
13051;SDS011;6592;47.484;9.726;2023-07-31T00:16:32;4.00;;;1.52;;
13051;SDS011;6592;47.484;9.726;2023-07-31T00:19:01;3.92;;;1.52;;
13051;SDS011;6592;47.484;9.726;2023-07-31T00:21:31;3.38;;;1.40;;
13051;SDS011;6592;47.484;9.726;2023-07-31T00:24:00;3.55;;;1.48;;
13051;SDS011;6592;47.484;9.726;2023-07-31T00:26:29;3.45;;;1.50;;
13051;SDS011;6592;47.484;9.726;2023-07-31T00:28:57;4.13;;;1.65;;
13051;SDS011;6592;47.484;9.726;2023-07-31T00:31:27;4.72;;;1.38;;
13051;SDS011;6592;47.484;9.726;2023-07-31T00:33:57;3.67;;;1.57;;
13051;SDS011;6592;47.484;9.726;2023-07-31T00:36:25;5.05;;;1.63;;
13051;SDS011;6592;47.484;9.726;2023-07-31T00:38:54;2.90;;;1.40;;
13051;SDS011;6592;47.484;9.726;2023-07-31T00:41:23;3.30;;;1.58;;
13051;SDS011;6592;47.484;9.726;2023-07-31T00:43:51;3.92;;;1.27;;
13051;SDS011;6592;47.484;9.726;2023-07-31T00:46:20;3.17;;;1.40;;
13051;SDS011;6592;47.484;9.726;2023-07-31T00:48:51;4.15;;;1.60;;
13051;SDS011;6592;47.484;9.726;2023-07-31T00:51:20;4.57;;;1.33;;
13051;SDS011;6592;47.484;9.726;2023-07-31T00:53:49;4.85;;;1.50;;
13051;SDS011;6592;47.484;9.726;2023-07-31T00:56:20;3.30;;;1.40;;
13051;SDS011;6592;47.484;9.726;2023-07-31T00:58:49;4.00;;;1.50;;
13051;SDS011;6592;47.484;9.726;2023-07-31T01:01:18;3.35;;;1.70;;
13051;SDS011;6592;47.484;9.726;2023-07-31T01:03:47;3.40;;;1.60;;
13051;SDS011;6592;47.484;9.726;2023-07-31T01:06:21;4.25;;;1.73;;
13051;SDS011;6592;47.484;9.726;2023-07-31T01:09:00;5.13;;;1.40;;
13051;SDS011;6592;47.484;9.726;2023-07-31T01:11:33;5.05;;;1.50;;
13051;SDS011;6592;47.484;9.726;2023-07-31T01:14:05;2.95;;;1.50;;
13051;SDS011;6592;47.484;9.726;2023-07-31T01:16:33;4.63;;;1.20;;
13051;SDS011;6592;47.484;9.726;2023-07-31T01:19:04;3.38;;;1.40;;
13051;SDS011;6592;47.484;9.726;2023-07-31T01:24:38;2.22;;;1.20;;
13051;SDS011;6592;47.484;9.726;2023-07-31T01:27:17;4.20;;;1.45;;
13051;SDS011;6592;47.484;9.726;2023-07-31T01:29:52;3.58;;;1.40;;
13051;SDS011;6592;47.484;9.726;2023-07-31T01:32:28;3.72;;;1.20;;
13051;SDS011;6592;47.484;9.726;2023-07-31T01:34:58;6.20;;;1.50;;
13051;SDS011;6592;47.484;9.726;2023-07-31T01:37:28;3.05;;;1.30;;
13051;SDS011;6592;47.484;9.726;2023-07-31T01:39:57;3.30;;;1.55;;
13051;SDS011;6592;47.484;9.726;2023-07-31T01:42:27;3.55;;;1.50;;
13051;SDS011;6592;47.484;9.726;2023-07-31T01:44:56;3.15;;;1.50;;
13051;SDS011;6592;47.484;9.726;2023-07-31T01:47:25;3.75;;;1.40;;
13051;SDS011;6592;47.484;9.726;2023-07-31T01:49:53;4.53;;;1.60;;
13051;SDS011;6592;47.484;9.726;2023-07-31T01:52:22;5.28;;;1.52;;
13051;SDS011;6592;47.484;9.726;2023-07-31T01:54:52;2.58;;;1.33;;
13051;SDS011;6592;47.484;9.726;2023-07-31T01:57:21;2.80;;;1.33;;
13051;SDS011;6592;47.484;9.726;2023-07-31T01:59:51;2.75;;;1.20;;
13051;SDS011;6592;47.484;9.726;2023-07-31T02:02:20;3.00;;;1.45;;
13051;SDS011;6592;47.484;9.726;2023-07-31T02:04:49;4.47;;;1.60;;
13051;SDS011;6592;47.484;9.726;2023-07-31T02:07:18;2.42;;;1.25;;
13051;SDS011;6592;47.484;9.726;2023-07-31T02:09:47;2.88;;;1.42;;
13051;SDS011;6592;47.484;9.726;2023-07-31T02:12:17;4.07;;;1.65;;
13051;SDS011;6592;47.484;9.726;2023-07-31T02:14:45;3.38;;;1.38;;
13051;SDS011;6592;47.484;9.726;2023-07-31T02:17:15;4.03;;;1.25;;
13051;SDS011;6592;47.484;9.726;2023-07-31T02:19:47;3.17;;;1.38;;
13051;SDS011;6592;47.484;9.726;2023-07-31T02:22:16;4.18;;;1.40;;
13051;SDS011;6592;47.484;9.726;2023-07-31T02:24:45;5.45;;;1.45;;
13051;SDS011;6592;47.484;9.726;2023-07-31T02:27:14;5.10;;;1.55;;
13051;SDS011;6592;47.484;9.726;2023-07-31T02:29:43;4.32;;;1.60;;
13051;SDS011;6592;47.484;9.726;2023-07-31T02:32:12;4.65;;;1.75;;
13051;SDS011;6592;47.484;9.726;2023-07-31T02:34:43;5.78;;;1.48;;
13051;SDS011;6592;47.484;9.726;2023-07-31T02:37:11;3.03;;;1.40;;
13051;SDS011;6592;47.484;9.726;2023-07-31T02:39:40;3.63;;;1.67;;
13051;SDS011;6592;47.484;9.726;2023-07-31T02:42:09;3.72;;;1.20;;
13051;SDS011;6592;47.484;9.726;2023-07-31T02:44:38;3.13;;;1.40;;
13051;SDS011;6592;47.484;9.726;2023-07-31T02:47:07;3.55;;;1.40;;
13051;SDS011;6592;47.484;9.726;2023-07-31T02:49:36;5.68;;;1.40;;
13051;SDS011;6592;47.484;9.726;2023-07-31T02:52:06;5.25;;;1.38;;
13051;SDS011;6592;47.484;9.726;2023-07-31T02:54:35;4.07;;;1.60;;
13051;SDS011;6592;47.484;9.726;2023-07-31T02:57:04;4.65;;;1.23;;
13051;SDS011;6592;47.484;9.726;2023-07-31T02:59:33;2.70;;;1.30;;
13051;SDS011;6592;47.484;9.726;2023-07-31T03:02:02;3.63;;;1.38;;
13051;SDS011;6592;47.484;9.726;2023-07-31T03:04:33;6.85;;;1.73;;
13051;SDS011;6592;47.484;9.726;2023-07-31T03:07:02;6.00;;;1.52;;
13051;SDS011;6592;47.484;9.726;2023-07-31T03:09:32;4.55;;;1.45;;
13051;SDS011;6592;47.484;9.726;2023-07-31T03:12:00;3.40;;;1.30;;
13051;SDS011;6592;47.484;9.726;2023-07-31T03:14:29;2.90;;;1.20;;
13051;SDS011;6592;47.484;9.726;2023-07-31T03:16:58;4.10;;;1.40;;
13051;SDS011;6592;47.484;9.726;2023-07-31T03:19:29;3.10;;;1.40;;
13051;SDS011;6592;47.484;9.726;2023-07-31T03:24:28;3.55;;;1.40;;
13051;SDS011;6592;47.484;9.726;2023-07-31T03:26:58;3.72;;;1.48;;
13051;SDS011;6592;47.484;9.726;2023-07-31T03:29:27;3.38;;;1.55;;
13051;SDS011;6592;47.484;9.726;2023-07-31T03:31:55;3.15;;;1.38;;
13051;SDS011;6592;47.484;9.726;2023-07-31T03:34:25;6.30;;;1.50;;
13051;SDS011;6592;47.484;9.726;2023-07-31T03:36:54;3.55;;;1.30;;
13051;SDS011;6592;47.484;9.726;2023-07-31T03:39:23;5.38;;;1.48;;
13051;SDS011;6592;47.484;9.726;2023-07-31T03:41:52;6.22;;;1.67;;
13051;SDS011;6592;47.484;9.726;2023-07-31T03:44:22;4.13;;;1.40;;
13051;SDS011;6592;47.484;9.726;2023-07-31T03:46:51;4.88;;;1.40;;
13051;SDS011;6592;47.484;9.726;2023-07-31T03:49:20;5.53;;;1.60;;
13051;SDS011;6592;47.484;9.726;2023-07-31T03:51:49;5.25;;;1.40;;
13051;SDS011;6592;47.484;9.726;2023-07-31T03:54:19;5.00;;;1.58;;
13051;SDS011;6592;47.484;9.726;2023-07-31T03:56:49;4.25;;;1.40;;
13051;SDS011;6592;47.484;9.726;2023-07-31T03:59:18;3.45;;;1.40;;
13051;SDS011;6592;47.484;9.726;2023-07-31T04:01:48;2.85;;;1.30;;
13051;SDS011;6592;47.484;9.726;2023-07-31T04:04:17;3.85;;;1.63;;
13051;SDS011;6592;47.484;9.726;2023-07-31T04:06:46;5.53;;;1.50;;
13051;SDS011;6592;47.484;9.726;2023-07-31T04:09:15;3.60;;;1.60;;
13051;SDS011;6592;47.484;9.726;2023-07-31T04:11:43;3.97;;;1.30;;
13051;SDS011;6592;47.484;9.726;2023-07-31T04:14:12;6.88;;;1.58;;
13051;SDS011;6592;47.484;9.726;2023-07-31T04:16:41;4.80;;;1.40;;
13051;SDS011;6592;47.484;9.726;2023-07-31T04:19:12;3.72;;;1.45;;
13051;SDS011;6592;47.484;9.726;2023-07-31T04:21:43;2.85;;;1.55;;
13051;SDS011;6592;47.484;9.726;2023-07-31T04:24:12;2.80;;;1.35;;
13051;SDS011;6592;47.484;9.726;2023-07-31T04:26:40;3.88;;;1.20;;
13051;SDS011;6592;47.484;9.726;2023-07-31T04:29:09;3.97;;;1.45;;
13051;SDS011;6592;47.484;9.726;2023-07-31T04:31:38;5.05;;;1.67;;
13051;SDS011;6592;47.484;9.726;2023-07-31T04:34:07;5.35;;;1.60;;
13051;SDS011;6592;47.484;9.726;2023-07-31T04:36:37;3.00;;;1.48;;
13051;SDS011;6592;47.484;9.726;2023-07-31T04:39:07;5.25;;;1.58;;
13051;SDS011;6592;47.484;9.726;2023-07-31T04:41:36;3.95;;;1.52;;
13051;SDS011;6592;47.484;9.726;2023-07-31T04:44:04;3.72;;;1.40;;
13051;SDS011;6592;47.484;9.726;2023-07-31T04:46:33;6.07;;;1.60;;
13051;SDS011;6592;47.484;9.726;2023-07-31T04:49:02;3.25;;;1.48;;
13051;SDS011;6592;47.484;9.726;2023-07-31T04:51:31;3.05;;;1.20;;
13051;SDS011;6592;47.484;9.726;2023-07-31T04:54:01;7.55;;;1.63;;
13051;SDS011;6592;47.484;9.726;2023-07-31T04:56:30;6.05;;;1.63;;
13051;SDS011;6592;47.484;9.726;2023-07-31T04:58:59;4.22;;;1.30;;
13051;SDS011;6592;47.484;9.726;2023-07-31T05:01:27;3.60;;;1.60;;
13051;SDS011;6592;47.484;9.726;2023-07-31T05:03:56;8.60;;;1.60;;
13051;SDS011;6592;47.484;9.726;2023-07-31T05:06:25;3.10;;;1.25;;
13051;SDS011;6592;47.484;9.726;2023-07-31T05:08:54;6.53;;;1.45;;
13051;SDS011;6592;47.484;9.726;2023-07-31T05:11:25;4.18;;;1.35;;
13051;SDS011;6592;47.484;9.726;2023-07-31T05:13:53;2.58;;;1.33;;
13051;SDS011;6592;47.484;9.726;2023-07-31T05:16:23;5.22;;;1.50;;
13051;SDS011;6592;47.484;9.726;2023-07-31T05:18:51;4.25;;;1.83;;
13051;SDS011;6592;47.484;9.726;2023-07-31T05:21:20;3.15;;;1.48;;
13051;SDS011;6592;47.484;9.726;2023-07-31T05:23:50;8.70;;;1.67;;
13051;SDS011;6592;47.484;9.726;2023-07-31T05:26:19;4.18;;;1.75;;
13051;SDS011;6592;47.484;9.726;2023-07-31T05:28:49;3.42;;;1.65;;
13051;SDS011;6592;47.484;9.726;2023-07-31T05:31:18;3.22;;;1.38;;
13051;SDS011;6592;47.484;9.726;2023-07-31T05:33:47;4.75;;;1.50;;
13051;SDS011;6592;47.484;9.726;2023-07-31T05:36:16;3.25;;;1.40;;
13051;SDS011;6592;47.484;9.726;2023-07-31T05:38:45;3.38;;;1.50;;
13051;SDS011;6592;47.484;9.726;2023-07-31T05:41:14;3.40;;;1.70;;
13051;SDS011;6592;47.484;9.726;2023-07-31T05:43:44;5.45;;;1.35;;
13051;SDS011;6592;47.484;9.726;2023-07-31T05:46:15;2.85;;;1.48;;
13051;SDS011;6592;47.484;9.726;2023-07-31T05:48:44;3.97;;;1.50;;
13051;SDS011;6592;47.484;9.726;2023-07-31T05:51:12;3.88;;;1.48;;
13051;SDS011;6592;47.484;9.726;2023-07-31T05:53:41;2.97;;;1.23;;
13051;SDS011;6592;47.484;9.726;2023-07-31T05:56:10;4.63;;;1.60;;
13051;SDS011;6592;47.484;9.726;2023-07-31T05:58:39;4.07;;;1.42;;
13051;SDS011;6592;47.484;9.726;2023-07-31T06:01:08;4.55;;;1.33;;
13051;SDS011;6592;47.484;9.726;2023-07-31T06:03:39;3.40;;;1.50;;
13051;SDS011;6592;47.484;9.726;2023-07-31T06:06:07;5.45;;;1.58;;
13051;SDS011;6592;47.484;9.726;2023-07-31T06:08:37;4.30;;;1.77;;
13051;SDS011;6592;47.484;9.726;2023-07-31T06:11:06;3.72;;;1.38;;
13051;SDS011;6592;47.484;9.726;2023-07-31T06:13:36;3.40;;;1.33;;
13051;SDS011;6592;47.484;9.726;2023-07-31T06:16:07;6.45;;;1.48;;
13051;SDS011;6592;47.484;9.726;2023-07-31T06:18:36;3.08;;;1.30;;
13051;SDS011;6592;47.484;9.726;2023-07-31T06:21:07;3.43;;;1.40;;
13051;SDS011;6592;47.484;9.726;2023-07-31T06:23:36;5.38;;;1.50;;
13051;SDS011;6592;47.484;9.726;2023-07-31T06:26:04;3.15;;;1.40;;
13051;SDS011;6592;47.484;9.726;2023-07-31T06:28:33;3.08;;;1.40;;
13051;SDS011;6592;47.484;9.726;2023-07-31T06:31:02;4.30;;;1.38;;
13051;SDS011;6592;47.484;9.726;2023-07-31T06:33:31;3.28;;;1.40;;
13051;SDS011;6592;47.484;9.726;2023-07-31T06:36:02;4.15;;;1.15;;
13051;SDS011;6592;47.484;9.726;2023-07-31T06:38:31;6.30;;;1.40;;
13051;SDS011;6592;47.484;9.726;2023-07-31T06:41:01;3.40;;;1.48;;
13051;SDS011;6592;47.484;9.726;2023-07-31T06:43:30;2.97;;;1.40;;
13051;SDS011;6592;47.484;9.726;2023-07-31T06:45:59;4.00;;;1.13;;
13051;SDS011;6592;47.484;9.726;2023-07-31T06:48:32;3.85;;;1.42;;
13051;SDS011;6592;47.484;9.726;2023-07-31T06:51:03;3.05;;;1.30;;
13051;SDS011;6592;47.484;9.726;2023-07-31T06:53:31;3.40;;;1.27;;
13051;SDS011;6592;47.484;9.726;2023-07-31T06:56:01;3.88;;;1.50;;
13051;SDS011;6592;47.484;9.726;2023-07-31T06:58:30;3.92;;;1.40;;
13051;SDS011;6592;47.484;9.726;2023-07-31T07:01:00;4.32;;;1.33;;
13051;SDS011;6592;47.484;9.726;2023-07-31T07:03:29;4.93;;;1.48;;
13051;SDS011;6592;47.484;9.726;2023-07-31T07:05:59;3.38;;;1.30;;
13051;SDS011;6592;47.484;9.726;2023-07-31T07:08:31;4.78;;;1.55;;
13051;SDS011;6592;47.484;9.726;2023-07-31T07:13:29;5.60;;;1.42;;
13051;SDS011;6592;47.484;9.726;2023-07-31T07:15:58;3.92;;;1.40;;
13051;SDS011;6592;47.484;9.726;2023-07-31T07:18:27;3.15;;;1.48;;
13051;SDS011;6592;47.484;9.726;2023-07-31T07:20:57;2.58;;;1.25;;
13051;SDS011;6592;47.484;9.726;2023-07-31T07:23:28;5.80;;;1.38;;
13051;SDS011;6592;47.484;9.726;2023-07-31T07:28:43;4.93;;;1.50;;
13051;SDS011;6592;47.484;9.726;2023-07-31T07:31:12;4.55;;;1.50;;
13051;SDS011;6592;47.484;9.726;2023-07-31T07:33:43;1.90;;;1.00;;
13051;SDS011;6592;47.484;9.726;2023-07-31T07:36:12;6.75;;;1.40;;
13051;SDS011;6592;47.484;9.726;2023-07-31T07:38:43;3.38;;;1.23;;
13051;SDS011;6592;47.484;9.726;2023-07-31T07:41:53;3.58;;;1.30;;
13051;SDS011;6592;47.484;9.726;2023-07-31T07:44:23;3.45;;;1.15;;
13051;SDS011;6592;47.484;9.726;2023-07-31T07:47:19;2.28;;;0.98;;
13051;SDS011;6592;47.484;9.726;2023-07-31T07:49:50;2.60;;;1.20;;
13051;SDS011;6592;47.484;9.726;2023-07-31T07:52:20;2.40;;;0.93;;
13051;SDS011;6592;47.484;9.726;2023-07-31T07:54:52;5.78;;;1.13;;
13051;SDS011;6592;47.484;9.726;2023-07-31T07:57:26;4.25;;;1.27;;
13051;SDS011;6592;47.484;9.726;2023-07-31T07:59:58;4.38;;;1.15;;
13051;SDS011;6592;47.484;9.726;2023-07-31T08:02:28;3.20;;;1.17;;
13051;SDS011;6592;47.484;9.726;2023-07-31T08:04:57;3.72;;;1.10;;
13051;SDS011;6592;47.484;9.726;2023-07-31T08:07:26;2.35;;;1.00;;
13051;SDS011;6592;47.484;9.726;2023-07-31T08:09:56;3.03;;;1.10;;
13051;SDS011;6592;47.484;9.726;2023-07-31T08:12:26;2.08;;;1.00;;
13051;SDS011;6592;47.484;9.726;2023-07-31T08:14:56;1.80;;;0.80;;
13051;SDS011;6592;47.484;9.726;2023-07-31T08:17:26;2.03;;;0.80;;
13051;SDS011;6592;47.484;9.726;2023-07-31T08:19:56;3.60;;;1.05;;
13051;SDS011;6592;47.484;9.726;2023-07-31T08:22:25;2.40;;;0.90;;
13051;SDS011;6592;47.484;9.726;2023-07-31T08:24:55;4.68;;;0.90;;
13051;SDS011;6592;47.484;9.726;2023-07-31T08:27:27;3.42;;;1.00;;
13051;SDS011;6592;47.484;9.726;2023-07-31T08:29:56;3.63;;;1.17;;
13051;SDS011;6592;47.484;9.726;2023-07-31T08:32:25;3.15;;;0.82;;
13051;SDS011;6592;47.484;9.726;2023-07-31T08:34:54;2.30;;;0.90;;
13051;SDS011;6592;47.484;9.726;2023-07-31T08:37:23;2.80;;;1.02;;
13051;SDS011;6592;47.484;9.726;2023-07-31T08:39:52;4.57;;;1.17;;
13051;SDS011;6592;47.484;9.726;2023-07-31T08:42:22;2.58;;;0.80;;
13051;SDS011;6592;47.484;9.726;2023-07-31T08:44:58;2.10;;;0.88;;
13051;SDS011;6592;47.484;9.726;2023-07-31T08:47:30;2.30;;;1.05;;
13051;SDS011;6592;47.484;9.726;2023-07-31T08:50:01;1.98;;;0.75;;
13051;SDS011;6592;47.484;9.726;2023-07-31T08:52:32;2.70;;;1.00;;
13051;SDS011;6592;47.484;9.726;2023-07-31T08:55:01;3.17;;;1.00;;
13051;SDS011;6592;47.484;9.726;2023-07-31T08:57:30;1.90;;;0.90;;
13051;SDS011;6592;47.484;9.726;2023-07-31T09:00:04;2.78;;;0.90;;
13051;SDS011;6592;47.484;9.726;2023-07-31T09:02:35;4.93;;;1.08;;
13051;SDS011;6592;47.484;9.726;2023-07-31T09:05:09;4.50;;;1.10;;
13051;SDS011;6592;47.484;9.726;2023-07-31T09:07:41;2.75;;;0.95;;
13051;SDS011;6592;47.484;9.726;2023-07-31T09:10:13;2.80;;;0.98;;
13051;SDS011;6592;47.484;9.726;2023-07-31T09:12:45;3.70;;;1.15;;
13051;SDS011;6592;47.484;9.726;2023-07-31T09:15:17;2.50;;;0.85;;
13051;SDS011;6592;47.484;9.726;2023-07-31T09:18:02;3.95;;;1.10;;
13051;SDS011;6592;47.484;9.726;2023-07-31T09:20:34;2.83;;;1.10;;
13051;SDS011;6592;47.484;9.726;2023-07-31T09:23:08;2.30;;;0.90;;
13051;SDS011;6592;47.484;9.726;2023-07-31T09:25:39;2.92;;;0.93;;
13051;SDS011;6592;47.484;9.726;2023-07-31T09:28:11;1.60;;;0.77;;
13051;SDS011;6592;47.484;9.726;2023-07-31T09:30:47;4.03;;;0.93;;
13051;SDS011;6592;47.484;9.726;2023-07-31T09:33:18;2.67;;;0.70;;
13051;SDS011;6592;47.484;9.726;2023-07-31T09:35:48;3.38;;;0.95;;
13051;SDS011;6592;47.484;9.726;2023-07-31T09:38:17;2.85;;;0.90;;
13051;SDS011;6592;47.484;9.726;2023-07-31T09:40:46;1.90;;;1.10;;
13051;SDS011;6592;47.484;9.726;2023-07-31T09:43:17;2.63;;;0.98;;
13051;SDS011;6592;47.484;9.726;2023-07-31T09:48:24;2.95;;;1.00;;
13051;SDS011;6592;47.484;9.726;2023-07-31T09:51:04;3.00;;;0.90;;
13051;SDS011;6592;47.484;9.726;2023-07-31T09:53:32;2.55;;;1.10;;
13051;SDS011;6592;47.484;9.726;2023-07-31T09:56:01;1.55;;;0.80;;
13051;SDS011;6592;47.484;9.726;2023-07-31T09:58:32;2.53;;;0.90;;
13051;SDS011;6592;47.484;9.726;2023-07-31T10:01:04;3.10;;;1.17;;
13051;SDS011;6592;47.484;9.726;2023-07-31T10:03:34;2.38;;;1.02;;
13051;SDS011;6592;47.484;9.726;2023-07-31T10:06:04;3.17;;;1.05;;
13051;SDS011;6592;47.484;9.726;2023-07-31T10:08:37;3.95;;;0.90;;
13051;SDS011;6592;47.484;9.726;2023-07-31T10:11:07;3.33;;;1.00;;
13051;SDS011;6592;47.484;9.726;2023-07-31T10:13:38;2.80;;;1.10;;
13051;SDS011;6592;47.484;9.726;2023-07-31T10:16:14;2.47;;;1.00;;
13051;SDS011;6592;47.484;9.726;2023-07-31T10:18:43;3.35;;;1.02;;
13051;SDS011;6592;47.484;9.726;2023-07-31T10:21:13;3.08;;;0.90;;
13051;SDS011;6592;47.484;9.726;2023-07-31T10:23:42;3.22;;;1.00;;
13051;SDS011;6592;47.484;9.726;2023-07-31T10:26:12;2.73;;;1.00;;
13051;SDS011;6592;47.484;9.726;2023-07-31T10:28:43;2.65;;;0.98;;
13051;SDS011;6592;47.484;9.726;2023-07-31T10:31:17;2.97;;;0.98;;
13051;SDS011;6592;47.484;9.726;2023-07-31T10:33:46;4.13;;;1.20;;
13051;SDS011;6592;47.484;9.726;2023-07-31T10:36:17;3.08;;;1.00;;
13051;SDS011;6592;47.484;9.726;2023-07-31T10:38:48;2.90;;;1.13;;
13051;SDS011;6592;47.484;9.726;2023-07-31T10:41:17;1.85;;;0.82;;
13051;SDS011;6592;47.484;9.726;2023-07-31T10:43:46;4.70;;;1.20;;
13051;SDS011;6592;47.484;9.726;2023-07-31T10:46:15;2.40;;;0.93;;
13051;SDS011;6592;47.484;9.726;2023-07-31T10:48:45;2.38;;;0.90;;
13051;SDS011;6592;47.484;9.726;2023-07-31T10:51:26;2.17;;;1.02;;
13051;SDS011;6592;47.484;9.726;2023-07-31T10:54:11;2.63;;;1.20;;
13051;SDS011;6592;47.484;9.726;2023-07-31T10:56:40;5.80;;;1.25;;
13051;SDS011;6592;47.484;9.726;2023-07-31T10:59:13;2.35;;;1.00;;
13051;SDS011;6592;47.484;9.726;2023-07-31T11:01:52;3.72;;;0.90;;
13051;SDS011;6592;47.484;9.726;2023-07-31T11:04:24;2.95;;;1.02;;
13051;SDS011;6592;47.484;9.726;2023-07-31T11:06:55;3.08;;;1.20;;
13051;SDS011;6592;47.484;9.726;2023-07-31T11:09:27;4.43;;;0.95;;
13051;SDS011;6592;47.484;9.726;2023-07-31T11:11:58;3.63;;;1.10;;
13051;SDS011;6592;47.484;9.726;2023-07-31T11:14:27;2.70;;;1.27;;
13051;SDS011;6592;47.484;9.726;2023-07-31T11:16:58;4.00;;;1.00;;
13051;SDS011;6592;47.484;9.726;2023-07-31T11:19:27;2.10;;;1.00;;
13051;SDS011;6592;47.484;9.726;2023-07-31T11:21:55;2.72;;;1.20;;
13051;SDS011;6592;47.484;9.726;2023-07-31T11:24:25;2.35;;;1.10;;
13051;SDS011;6592;47.484;9.726;2023-07-31T11:26:56;1.90;;;1.00;;
13051;SDS011;6592;47.484;9.726;2023-07-31T11:29:27;4.05;;;1.10;;
13051;SDS011;6592;47.484;9.726;2023-07-31T11:34:27;3.13;;;1.00;;
13051;SDS011;6592;47.484;9.726;2023-07-31T11:36:56;3.08;;;1.13;;
13051;SDS011;6592;47.484;9.726;2023-07-31T11:39:25;2.70;;;1.15;;
13051;SDS011;6592;47.484;9.726;2023-07-31T11:41:58;2.42;;;1.00;;
13051;SDS011;6592;47.484;9.726;2023-07-31T11:44:36;2.72;;;1.20;;
13051;SDS011;6592;47.484;9.726;2023-07-31T11:47:09;2.22;;;1.00;;
13051;SDS011;6592;47.484;9.726;2023-07-31T11:49:39;2.58;;;1.00;;
13051;SDS011;6592;47.484;9.726;2023-07-31T11:54:39;2.72;;;1.20;;
13051;SDS011;6592;47.484;9.726;2023-07-31T11:57:08;4.78;;;1.15;;
13051;SDS011;6592;47.484;9.726;2023-07-31T11:59:37;2.85;;;1.08;;
13051;SDS011;6592;47.484;9.726;2023-07-31T12:02:08;4.45;;;1.48;;
13051;SDS011;6592;47.484;9.726;2023-07-31T12:04:38;4.97;;;1.38;;
13051;SDS011;6592;47.484;9.726;2023-07-31T12:07:07;3.30;;;1.13;;
13051;SDS011;6592;47.484;9.726;2023-07-31T12:09:35;3.95;;;1.40;;
13051;SDS011;6592;47.484;9.726;2023-07-31T12:12:07;3.30;;;1.10;;
13051;SDS011;6592;47.484;9.726;2023-07-31T12:14:36;2.30;;;1.20;;
13051;SDS011;6592;47.484;9.726;2023-07-31T12:17:11;2.85;;;1.23;;
13051;SDS011;6592;47.484;9.726;2023-07-31T12:19:43;2.97;;;1.13;;
13051;SDS011;6592;47.484;9.726;2023-07-31T12:22:12;3.17;;;1.10;;
13051;SDS011;6592;47.484;9.726;2023-07-31T12:24:42;3.50;;;1.20;;
13051;SDS011;6592;47.484;9.726;2023-07-31T12:29:41;2.30;;;1.00;;
13051;SDS011;6592;47.484;9.726;2023-07-31T12:32:22;3.15;;;1.10;;
13051;SDS011;6592;47.484;9.726;2023-07-31T12:34:58;2.72;;;1.27;;
13051;SDS011;6592;47.484;9.726;2023-07-31T12:37:30;2.83;;;1.10;;
13051;SDS011;6592;47.484;9.726;2023-07-31T12:40:00;4.13;;;1.30;;
13051;SDS011;6592;47.484;9.726;2023-07-31T12:42:34;2.55;;;1.10;;
13051;SDS011;6592;47.484;9.726;2023-07-31T12:45:04;3.53;;;1.27;;
13051;SDS011;6592;47.484;9.726;2023-07-31T12:47:37;2.90;;;1.45;;
13051;SDS011;6592;47.484;9.726;2023-07-31T12:50:06;2.92;;;1.13;;
13051;SDS011;6592;47.484;9.726;2023-07-31T12:52:35;3.35;;;1.30;;
13051;SDS011;6592;47.484;9.726;2023-07-31T12:55:04;2.70;;;1.33;;
13051;SDS011;6592;47.484;9.726;2023-07-31T12:57:34;2.45;;;1.25;;
13051;SDS011;6592;47.484;9.726;2023-07-31T13:00:03;2.22;;;1.17;;
13051;SDS011;6592;47.484;9.726;2023-07-31T13:02:33;5.68;;;1.30;;
13051;SDS011;6592;47.484;9.726;2023-07-31T13:05:08;2.75;;;1.10;;
13051;SDS011;6592;47.484;9.726;2023-07-31T13:07:38;2.00;;;1.00;;
13051;SDS011;6592;47.484;9.726;2023-07-31T13:10:08;1.77;;;1.05;;
13051;SDS011;6592;47.484;9.726;2023-07-31T13:12:37;2.35;;;1.00;;
13051;SDS011;6592;47.484;9.726;2023-07-31T13:15:06;3.92;;;1.27;;
13051;SDS011;6592;47.484;9.726;2023-07-31T13:17:36;2.33;;;1.05;;
13051;SDS011;6592;47.484;9.726;2023-07-31T13:20:08;2.83;;;1.20;;
13051;SDS011;6592;47.484;9.726;2023-07-31T13:22:37;1.98;;;0.98;;
13051;SDS011;6592;47.484;9.726;2023-07-31T13:25:06;4.40;;;1.30;;
13051;SDS011;6592;47.484;9.726;2023-07-31T13:27:35;2.40;;;1.17;;
13051;SDS011;6592;47.484;9.726;2023-07-31T13:30:05;2.00;;;0.90;;
13051;SDS011;6592;47.484;9.726;2023-07-31T13:32:35;3.00;;;1.05;;
13051;SDS011;6592;47.484;9.726;2023-07-31T13:37:38;3.28;;;1.25;;
13051;SDS011;6592;47.484;9.726;2023-07-31T13:40:07;2.17;;;1.10;;
13051;SDS011;6592;47.484;9.726;2023-07-31T13:42:36;2.80;;;1.20;;
13051;SDS011;6592;47.484;9.726;2023-07-31T13:45:05;2.30;;;1.10;;
13051;SDS011;6592;47.484;9.726;2023-07-31T13:47:34;2.25;;;0.90;;
13051;SDS011;6592;47.484;9.726;2023-07-31T13:50:04;4.37;;;1.40;;
13051;SDS011;6592;47.484;9.726;2023-07-31T13:52:35;2.55;;;1.10;;
13051;SDS011;6592;47.484;9.726;2023-07-31T13:55:04;2.05;;;0.90;;
13051;SDS011;6592;47.484;9.726;2023-07-31T13:57:33;4.00;;;1.17;;
13051;SDS011;6592;47.484;9.726;2023-07-31T14:00:06;2.95;;;1.30;;
13051;SDS011;6592;47.484;9.726;2023-07-31T14:02:36;1.90;;;1.00;;
13051;SDS011;6592;47.484;9.726;2023-07-31T14:05:06;2.20;;;0.98;;
13051;SDS011;6592;47.484;9.726;2023-07-31T14:07:36;2.83;;;1.10;;
13051;SDS011;6592;47.484;9.726;2023-07-31T14:10:05;2.70;;;1.20;;
13051;SDS011;6592;47.484;9.726;2023-07-31T14:12:34;2.75;;;0.90;;
13051;SDS011;6592;47.484;9.726;2023-07-31T14:15:09;3.08;;;1.23;;
13051;SDS011;6592;47.484;9.726;2023-07-31T14:17:38;2.70;;;1.20;;
13051;SDS011;6592;47.484;9.726;2023-07-31T14:20:12;3.13;;;0.90;;
13051;SDS011;6592;47.484;9.726;2023-07-31T14:22:46;2.75;;;1.25;;
13051;SDS011;6592;47.484;9.726;2023-07-31T14:25:15;2.95;;;0.88;;
13051;SDS011;6592;47.484;9.726;2023-07-31T14:27:44;3.90;;;1.13;;
13051;SDS011;6592;47.484;9.726;2023-07-31T14:30:13;4.35;;;1.15;;
13051;SDS011;6592;47.484;9.726;2023-07-31T14:32:42;2.97;;;1.15;;
13051;SDS011;6592;47.484;9.726;2023-07-31T14:35:14;2.85;;;1.10;;
13051;SDS011;6592;47.484;9.726;2023-07-31T14:37:44;2.92;;;1.10;;
13051;SDS011;6592;47.484;9.726;2023-07-31T14:40:13;3.85;;;1.00;;
13051;SDS011;6592;47.484;9.726;2023-07-31T14:42:43;2.97;;;1.25;;
13051;SDS011;6592;47.484;9.726;2023-07-31T14:45:14;2.83;;;1.17;;
13051;SDS011;6592;47.484;9.726;2023-07-31T14:47:52;2.13;;;0.90;;
13051;SDS011;6592;47.484;9.726;2023-07-31T14:50:23;2.10;;;1.00;;
13051;SDS011;6592;47.484;9.726;2023-07-31T14:52:53;2.10;;;0.93;;
13051;SDS011;6592;47.484;9.726;2023-07-31T14:55:21;3.17;;;1.10;;
13051;SDS011;6592;47.484;9.726;2023-07-31T14:57:51;4.83;;;1.20;;
13051;SDS011;6592;47.484;9.726;2023-07-31T15:00:20;5.47;;;1.05;;
13051;SDS011;6592;47.484;9.726;2023-07-31T15:02:50;2.72;;;1.00;;
13051;SDS011;6592;47.484;9.726;2023-07-31T15:05:19;2.55;;;1.00;;
13051;SDS011;6592;47.484;9.726;2023-07-31T15:07:50;2.78;;;1.10;;
13051;SDS011;6592;47.484;9.726;2023-07-31T15:10:21;2.05;;;0.98;;
13051;SDS011;6592;47.484;9.726;2023-07-31T15:12:49;2.10;;;1.00;;
13051;SDS011;6592;47.484;9.726;2023-07-31T15:15:18;4.22;;;1.38;;
13051;SDS011;6592;47.484;9.726;2023-07-31T15:17:46;2.28;;;1.10;;
13051;SDS011;6592;47.484;9.726;2023-07-31T15:20:16;3.47;;;1.30;;
13051;SDS011;6592;47.484;9.726;2023-07-31T15:22:44;2.80;;;0.98;;
13051;SDS011;6592;47.484;9.726;2023-07-31T15:25:15;2.72;;;1.33;;
13051;SDS011;6592;47.484;9.726;2023-07-31T15:27:47;2.67;;;1.05;;
13051;SDS011;6592;47.484;9.726;2023-07-31T15:30:16;3.15;;;1.15;;
13051;SDS011;6592;47.484;9.726;2023-07-31T15:32:45;2.78;;;1.10;;
13051;SDS011;6592;47.484;9.726;2023-07-31T15:35:16;1.92;;;1.08;;
13051;SDS011;6592;47.484;9.726;2023-07-31T15:37:48;2.75;;;1.10;;
13051;SDS011;6592;47.484;9.726;2023-07-31T15:40:18;2.53;;;1.20;;
13051;SDS011;6592;47.484;9.726;2023-07-31T15:42:47;2.75;;;1.13;;